Time;durP1;ratioP1;P1;durP2;ratioP2;P2;SDS_P1;SDS_P2;PMS_P1;PMS_P2;Temp;Humidity;BMP_temperature;BMP_pressure;BME280_temperature;BME280_humidity;BME280_pressure;Samples;Min_cycle;Max_cycle;Signal;HPM_P1;HPM_P2
2022/01/07 00:01:01;;;;;;;15.30;1.88;;;8.00;99.90;;;;;;5030703;28;20025;-86
2022/01/07 00:03:27;;;;;;;8.85;1.85;;;8.00;99.90;;;;;;5030233;28;20104;-86
2022/01/07 00:05:53;;;;;;;10.45;2.45;;;8.00;99.90;;;;;;5029689;28;20032;-85
2022/01/07 00:08:18;;;;;;;13.85;2.10;;;8.00;99.90;;;;;;5030012;28;20025;-86
2022/01/07 00:10:44;;;;;;;9.90;2.03;;;8.00;99.90;;;;;;5030235;28;20445;-86
2022/01/07 00:13:11;;;;;;;9.20;2.00;;;8.00;99.90;;;;;;5030476;28;20064;-86
2022/01/07 00:15:37;;;;;;;17.10;2.30;;;8.00;99.90;;;;;;5030279;28;20056;-85
2022/01/07 00:18:03;;;;;;;8.73;2.47;;;8.10;99.90;;;;;;5030207;28;20053;-86
2022/01/07 00:20:29;;;;;;;10.18;2.17;;;8.10;99.90;;;;;;5029702;28;20434;-86
2022/01/07 00:22:55;;;;;;;14.93;2.10;;;8.10;99.90;;;;;;5030046;28;20025;-86
2022/01/07 00:25:22;;;;;;;9.98;2.38;;;8.10;99.90;;;;;;5029550;28;20032;-86
2022/01/07 00:27:49;;;;;;;15.80;2.42;;;8.10;99.90;;;;;;5012343;28;20030;-86
2022/01/07 00:30:17;;;;;;;9.48;2.50;;;8.10;99.90;;;;;;5029658;28;20396;-86
2022/01/07 00:32:43;;;;;;;14.13;2.10;;;8.10;99.90;;;;;;5029360;28;20037;-86
2022/01/07 00:35:10;;;;;;;15.82;2.30;;;8.00;99.90;;;;;;5029442;28;20548;-84
2022/01/07 00:37:36;;;;;;;8.95;2.20;;;8.00;99.90;;;;;;5029661;28;20026;-84
2022/01/07 00:40:05;;;;;;;15.38;2.10;;;8.00;99.90;;;;;;5029665;28;20117;-84
2022/01/07 00:42:31;;;;;;;9.30;2.33;;;8.00;99.90;;;;;;5029515;28;20112;-85
2022/01/07 00:44:57;;;;;;;11.80;2.53;;;8.00;99.90;;;;;;5029698;28;20113;-84
2022/01/07 00:47:22;;;;;;;20.10;2.30;;;7.90;99.90;;;;;;4998063;28;20547;-84
2022/01/07 00:49:48;;;;;;;15.43;2.47;;;8.00;99.90;;;;;;5028991;28;20413;-84
2022/01/07 00:52:14;;;;;;;12.63;2.22;;;8.00;99.90;;;;;;5029150;28;20078;-84
2022/01/07 00:54:40;;;;;;;11.40;2.28;;;8.10;99.90;;;;;;5029424;28;20421;-84
2022/01/07 00:57:05;;;;;;;7.72;1.60;;;8.10;99.90;;;;;;5029416;28;20521;-84
2022/01/07 00:59:31;;;;;;;19.33;2.80;;;8.00;99.90;;;;;;4999269;28;20036;-84
2022/01/07 01:01:57;;;;;;;13.25;2.33;;;8.00;99.90;;;;;;5011696;28;20030;-84
2022/01/07 01:04:23;;;;;;;10.18;2.08;;;8.10;99.90;;;;;;5029267;28;20149;-84
2022/01/07 01:06:48;;;;;;;11.38;2.35;;;8.00;99.90;;;;;;5028708;28;20075;-84
2022/01/07 01:09:14;;;;;;;14.35;2.75;;;8.00;99.90;;;;;;5029167;28;20067;-84
2022/01/07 01:11:40;;;;;;;18.90;3.00;;;8.00;99.90;;;;;;5028578;28;20409;-84
2022/01/07 01:14:06;;;;;;;14.93;2.10;;;8.00;99.90;;;;;;5029117;28;20018;-84
2022/01/07 01:16:32;;;;;;;18.55;2.42;;;8.10;99.90;;;;;;5028998;28;20033;-84
2022/01/07 01:18:58;;;;;;;15.55;2.33;;;8.10;99.90;;;;;;5029109;28;20402;-84
2022/01/07 01:21:24;;;;;;;13.15;1.95;;;8.10;99.90;;;;;;5028929;28;20025;-85
2022/01/07 01:23:50;;;;;;;15.75;2.05;;;8.10;99.90;;;;;;5029358;28;20022;-85
2022/01/07 01:26:20;;;;;;;19.63;3.33;;;8.20;99.90;;;;;;5029070;28;20044;-84
2022/01/07 01:28:46;;;;;;;21.33;2.70;;;8.20;99.90;;;;;;5028937;28;20104;-84
2022/01/07 01:31:17;;;;;;;14.85;3.15;;;8.20;99.90;;;;;;5011215;28;20044;-84
2022/01/07 01:33:44;;;;;;;18.90;3.33;;;8.20;99.90;;;;;;5029020;28;20112;-84
2022/01/07 01:36:10;;;;;;;23.33;3.05;;;8.20;99.90;;;;;;5028775;28;20132;-85
2022/01/07 01:38:37;;;;;;;19.70;2.58;;;8.20;99.90;;;;;;5028901;28;20034;-84
2022/01/07 01:41:05;;;;;;;22.27;3.42;;;8.20;99.90;;;;;;5028906;28;20021;-84
2022/01/07 01:43:30;;;;;;;17.00;2.72;;;8.20;99.90;;;;;;5028838;28;20014;-84
2022/01/07 01:45:56;;;;;;;19.92;3.17;;;8.20;99.90;;;;;;5028411;28;20428;-85
2022/01/07 01:48:23;;;;;;;14.75;2.38;;;8.20;99.90;;;;;;5028798;28;20021;-86
2022/01/07 01:50:49;;;;;;;17.30;3.38;;;8.20;99.90;;;;;;5010531;28;20120;-86
2022/01/07 01:53:15;;;;;;;24.58;3.13;;;8.10;99.90;;;;;;5028663;28;20035;-86
2022/01/07 01:55:41;;;;;;;15.10;3.08;;;8.00;99.90;;;;;;5011069;28;20486;-87
2022/01/07 01:58:07;;;;;;;23.27;3.70;;;7.90;99.90;;;;;;5022930;28;20108;-86
2022/01/07 02:00:33;;;;;;;25.90;3.58;;;8.00;99.90;;;;;;5011204;28;20095;-86
2022/01/07 02:02:59;;;;;;;25.80;3.80;;;7.90;99.90;;;;;;5011197;28;20030;-86
2022/01/07 02:05:26;;;;;;;27.75;3.75;;;7.90;99.90;;;;;;5028399;28;20049;-86
2022/01/07 02:07:53;;;;;;;19.75;3.10;;;7.90;99.90;;;;;;5028505;28;20054;-86
2022/01/07 02:10:20;;;;;;;18.90;3.67;;;7.80;99.90;;;;;;5028414;28;20047;-86
2022/01/07 02:12:46;;;;;;;19.60;2.75;;;7.80;99.90;;;;;;5011017;28;20132;-86
2022/01/07 02:15:13;;;;;;;14.57;2.65;;;7.80;99.90;;;;;;5010939;28;20065;-86
2022/01/07 02:17:41;;;;;;;19.25;2.15;;;7.80;99.90;;;;;;5028384;28;20466;-86
2022/01/07 02:20:08;;;;;;;10.77;2.15;;;7.80;99.90;;;;;;5010566;28;20036;-86
2022/01/07 02:22:34;;;;;;;15.68;2.47;;;7.70;99.90;;;;;;5011104;28;20037;-86
2022/01/07 02:25:00;;;;;;;15.68;2.80;;;7.80;99.90;;;;;;5028978;28;20102;-86
2022/01/07 02:27:26;;;;;;;11.23;2.88;;;7.80;99.90;;;;;;5028289;28;20029;-86
2022/01/07 02:29:52;;;;;;;15.35;2.63;;;7.80;99.90;;;;;;5028610;28;20072;-86
2022/01/07 02:32:18;;;;;;;17.08;3.10;;;7.70;99.90;;;;;;5010570;28;20450;-86
2022/01/07 02:34:45;;;;;;;17.20;2.80;;;7.70;99.90;;;;;;5010575;28;20036;-86
2022/01/07 02:37:13;;;;;;;12.15;2.65;;;7.60;99.90;;;;;;5027881;28;20105;-86
2022/01/07 02:39:39;;;;;;;12.77;2.97;;;7.60;99.90;;;;;;5028513;28;20041;-86
2022/01/07 02:42:05;;;;;;;13.63;2.38;;;7.60;99.90;;;;;;5028552;28;20047;-86
2022/01/07 02:44:31;;;;;;;13.23;2.90;;;7.60;99.90;;;;;;5028897;28;20049;-86
2022/01/07 02:46:57;;;;;;;20.10;3.20;;;7.70;99.90;;;;;;5028714;28;20498;-86
2022/01/07 02:49:22;;;;;;;11.10;2.47;;;7.80;99.90;;;;;;5028349;28;20060;-86
2022/01/07 02:51:48;;;;;;;17.48;2.50;;;7.80;99.90;;;;;;5028290;28;20044;-86
2022/01/07 02:54:14;;;;;;;14.95;2.03;;;7.90;99.90;;;;;;5029272;28;20022;-85
2022/01/07 02:56:40;;;;;;;14.15;2.03;;;8.00;99.90;;;;;;5032011;28;20043;-85
2022/01/07 02:59:08;;;;;;;17.75;3.00;;;8.30;99.90;;;;;;5014258;28;20021;-85
2022/01/07 03:01:34;;;;;;;10.85;2.15;;;8.50;99.90;;;;;;5031969;28;20022;-85
2022/01/07 03:04:01;;;;;;;13.32;2.47;;;8.60;99.90;;;;;;5031705;28;20046;-86
2022/01/07 03:06:27;;;;;;;15.82;2.83;;;8.70;99.90;;;;;;5030948;28;20075;-85
2022/01/07 03:08:52;;;;;;;18.20;3.33;;;8.80;99.90;;;;;;5031567;28;20025;-85
2022/01/07 03:11:19;;;;;;;18.67;3.65;;;8.90;99.90;;;;;;5013518;28;20102;-86
2022/01/07 03:13:45;;;;;;;15.73;3.33;;;9.00;99.90;;;;;;5031094;28;20528;-86
2022/01/07 03:16:11;;;;;;;17.27;3.38;;;9.00;99.90;;;;;;5031354;28;20026;-86
2022/01/07 03:18:37;;;;;;;18.40;3.00;;;9.00;99.90;;;;;;5013817;28;20025;-86
2022/01/07 03:21:04;;;;;;;21.90;3.38;;;9.00;99.90;;;;;;5031140;28;20028;-86
2022/01/07 03:23:31;;;;;;;21.65;3.85;;;8.90;99.90;;;;;;5031686;28;20435;-86
2022/01/07 03:25:57;;;;;;;21.58;4.72;;;9.00;99.90;;;;;;5031497;28;20044;-86
2022/01/07 03:28:23;;;;;;;31.45;4.90;;;9.00;99.90;;;;;;5031552;28;20087;-85
2022/01/07 03:30:49;;;;;;;22.52;3.30;;;9.00;99.90;;;;;;5031399;28;20503;-86
2022/01/07 03:33:15;;;;;;;20.33;3.47;;;9.00;99.90;;;;;;5031295;28;20025;-86
2022/01/07 03:35:41;;;;;;;23.35;3.78;;;9.00;99.90;;;;;;5013087;28;20470;-85
2022/01/07 03:38:08;;;;;;;22.05;3.35;;;9.00;99.90;;;;;;5013388;28;20037;-85
2022/01/07 03:40:35;;;;;;;25.17;4.15;;;9.00;99.90;;;;;;5031112;28;20070;-85
2022/01/07 03:43:01;;;;;;;19.73;3.78;;;9.00;99.90;;;;;;5012768;28;20035;-85
2022/01/07 03:45:27;;;;;;;22.02;3.47;;;9.00;99.90;;;;;;5031028;28;20022;-85
2022/01/07 03:47:53;;;;;;;29.67;4.95;;;9.10;99.90;;;;;;5030568;28;20041;-85
2022/01/07 03:50:22;;;;;;;20.85;4.03;;;9.00;99.90;;;;;;5012552;28;20419;-86
2022/01/07 03:52:48;;;;;;;26.75;4.78;;;9.10;99.90;;;;;;5012687;28;20116;-86
2022/01/07 03:55:16;;;;;;;21.23;4.80;;;9.10;99.90;;;;;;5013076;28;20087;-86
2022/01/07 03:57:42;;;;;;;26.25;5.13;;;9.10;99.90;;;;;;5030587;28;20033;-86
2022/01/07 04:00:12;;;;;;;27.52;5.40;;;9.20;99.90;;;;;;5030656;28;20493;-87
2022/01/07 04:02:38;;;;;;;25.65;5.57;;;9.20;99.90;;;;;;5030629;28;20083;-87
2022/01/07 04:05:05;;;;;;;20.60;4.57;;;9.30;99.90;;;;;;5031029;28;20036;-88
2022/01/07 04:07:33;;;;;;;24.85;5.85;;;9.30;99.90;;;;;;5012455;28;20021;-87
2022/01/07 04:09:59;;;;;;;22.08;5.13;;;9.20;99.90;;;;;;5030550;28;20180;-87
2022/01/07 04:12:26;;;;;;;22.40;4.63;;;9.20;99.90;;;;;;5012906;28;20434;-90
2022/01/07 04:15:02;;;;;;;20.90;4.38;;;9.20;99.90;;;;;;5012846;28;20394;-90
2022/01/07 04:17:28;;;;;;;19.00;4.55;;;9.10;99.90;;;;;;4993963;28;20036;-88
2022/01/07 04:19:54;;;;;;;29.20;4.35;;;9.20;99.90;;;;;;5010580;28;20022;-86
2022/01/07 04:22:20;;;;;;;19.45;4.00;;;9.10;99.90;;;;;;5011106;28;20018;-87
2022/01/07 04:24:45;;;;;;;21.70;3.65;;;9.10;99.90;;;;;;5009937;28;20029;-88
2022/01/07 04:27:11;;;;;;;20.48;4.25;;;9.10;99.90;;;;;;4990459;28;20027;-89
2022/01/07 04:29:37;;;;;;;25.25;4.13;;;9.10;99.90;;;;;;5011265;28;20037;-88
2022/01/07 04:32:05;;;;;;;23.63;3.70;;;9.10;99.90;;;;;;5010946;28;20084;-87
2022/01/07 04:34:30;;;;;;;23.30;4.28;;;9.10;99.90;;;;;;5010972;28;20018;-87
2022/01/07 04:36:56;;;;;;;23.58;4.03;;;9.10;99.90;;;;;;4990099;28;20499;-87
2022/01/07 04:39:22;;;;;;;27.15;4.25;;;9.20;99.90;;;;;;5010928;28;20022;-87
2022/01/07 04:41:47;;;;;;;25.23;3.58;;;9.10;99.90;;;;;;5029719;28;20269;-88
2022/01/07 04:44:13;;;;;;;28.52;4.18;;;9.10;99.90;;;;;;5029668;28;20013;-89
2022/01/07 04:46:39;;;;;;;26.77;3.97;;;9.10;99.90;;;;;;5029861;28;20505;-88
2022/01/07 04:49:04;;;;;;;26.42;4.43;;;9.20;99.90;;;;;;5029455;28;20094;-88
2022/01/07 04:51:30;;;;;;;20.67;4.15;;;9.20;99.90;;;;;;5011785;28;20454;-89
2022/01/07 04:53:56;;;;;;;25.77;3.88;;;9.20;99.90;;;;;;5029947;28;20192;-89
2022/01/07 04:56:22;;;;;;;26.92;3.42;;;9.30;99.90;;;;;;5029371;28;20061;-90
2022/01/07 04:58:47;;;;;;;25.15;4.60;;;9.30;99.90;;;;;;5009413;28;20390;-90
2022/01/07 05:01:13;;;;;;;18.65;5.18;;;9.30;99.90;;;;;;4992668;28;20061;-90
2022/01/07 05:03:39;;;;;;;18.67;3.28;;;9.30;99.90;;;;;;4992803;28;20026;-90
2022/01/07 05:06:44;;;;;;;14.05;3.40;;;9.30;99.90;;;;;;4992927;28;20104;-90
2022/01/07 05:08:50;;;;;;;27.10;3.97;;;9.30;99.90;;;;;;5010376;28;20129;-90
2022/01/07 05:11:16;;;;;;;16.52;3.92;;;9.30;99.90;;;;;;5010433;28;20490;-87
2022/01/07 05:13:42;;;;;;;26.38;3.70;;;9.40;99.90;;;;;;5010347;28;20038;-86
2022/01/07 05:16:07;;;;;;;29.08;2.97;;;9.40;99.90;;;;;;4992575;28;20112;-87
2022/01/07 05:18:33;;;;;;;24.85;4.32;;;9.40;99.90;;;;;;5010141;28;20050;-88
2022/01/07 05:20:59;;;;;;;16.02;2.17;;;9.30;99.90;;;;;;4991979;28;20423;-89
2022/01/07 05:23:24;;;;;;;8.88;1.38;;;9.00;99.90;;;;;;4992853;28;20096;-88
2022/01/07 05:25:50;;;;;;;6.90;1.02;;;8.60;99.90;;;;;;5018879;28;20079;-87
2022/01/07 05:28:16;;;;;;;10.48;1.00;;;8.40;99.90;;;;;;5029074;28;20022;-88
2022/01/07 05:30:42;;;;;;;11.82;1.55;;;8.30;99.90;;;;;;5029213;28;20591;-87
2022/01/07 05:33:08;;;;;;;9.90;1.40;;;8.20;99.90;;;;;;5029261;28;20490;-87
2022/01/07 05:35:33;;;;;;;15.13;1.50;;;8.20;99.90;;;;;;5028906;28;20028;-88
2022/01/07 05:37:59;;;;;;;11.07;1.27;;;8.30;99.90;;;;;;5029156;28;20494;-89
2022/01/07 05:40:25;;;;;;;15.90;1.90;;;8.40;99.90;;;;;;5029234;28;20502;-88
2022/01/07 05:42:51;;;;;;;14.45;1.42;;;8.50;99.90;;;;;;5029275;28;20018;-89
2022/01/07 05:45:16;;;;;;;11.45;1.70;;;8.50;99.90;;;;;;5011604;28;20030;-87
2022/01/07 05:47:42;;;;;;;18.23;2.28;;;8.50;99.90;;;;;;5003492;28;20018;-86
2022/01/07 05:50:08;;;;;;;24.25;2.78;;;8.50;99.90;;;;;;5009361;28;20061;-86
2022/01/07 05:52:34;;;;;;;19.50;2.67;;;8.60;99.90;;;;;;4992206;28;20139;-87
2022/01/07 05:55:00;;;;;;;15.15;1.85;;;8.60;99.90;;;;;;5009904;28;20500;-88
2022/01/07 05:57:27;;;;;;;15.23;1.77;;;8.60;99.90;;;;;;4995206;28;20116;-88
2022/01/07 05:59:53;;;;;;;14.75;2.08;;;8.50;99.90;;;;;;5011148;28;20193;-89
2022/01/07 06:02:19;;;;;;;20.50;2.38;;;8.50;99.90;;;;;;5009780;28;20105;-88
2022/01/07 06:04:44;;;;;;;22.38;2.88;;;8.50;99.90;;;;;;5009615;28;20026;-88
2022/01/07 06:07:10;;;;;;;20.38;5.75;;;8.50;99.90;;;;;;4988978;28;20025;-88
2022/01/07 06:09:36;;;;;;;24.30;3.00;;;8.50;99.90;;;;;;5007655;28;20032;-89
2022/01/07 06:12:02;;;;;;;19.85;2.67;;;8.60;99.90;;;;;;5009627;28;20635;-88
2022/01/07 06:14:28;;;;;;;20.58;3.28;;;8.60;99.90;;;;;;5009594;28;20505;-88
2022/01/07 06:16:54;;;;;;;20.02;3.95;;;8.60;99.90;;;;;;5010061;28;20033;-89
2022/01/07 06:19:20;;;;;;;18.27;2.75;;;8.60;99.90;;;;;;4993945;28;20030;-89
2022/01/07 06:21:46;;;;;;;21.38;2.78;;;8.60;99.90;;;;;;5028192;28;20039;-89
2022/01/07 06:24:12;;;;;;;23.05;3.45;;;8.60;99.90;;;;;;5028414;28;20086;-89
2022/01/07 06:26:38;;;;;;;24.17;5.55;;;8.60;99.90;;;;;;5028622;28;20021;-89
2022/01/07 06:29:05;;;;;;;26.77;4.35;;;8.60;99.90;;;;;;5028932;28;20022;-89
2022/01/07 06:31:30;;;;;;;21.58;3.40;;;8.60;99.90;;;;;;5032691;28;20029;-89
2022/01/07 06:33:58;;;;;;;23.13;3.03;;;8.60;99.90;;;;;;5014789;28;20028;-89
2022/01/07 06:36:25;;;;;;;24.98;3.58;;;8.60;99.90;;;;;;5014163;28;20029;-89
2022/01/07 06:38:50;;;;;;;29.77;5.07;;;8.60;99.90;;;;;;5014580;28;20048;-88
2022/01/07 06:41:16;;;;;;;26.17;3.60;;;8.50;99.90;;;;;;5031777;28;20118;-89
2022/01/07 06:43:43;;;;;;;34.30;4.05;;;8.60;99.90;;;;;;5026263;28;20022;-88
2022/01/07 06:46:11;;;;;;;26.10;4.00;;;8.60;99.90;;;;;;5032982;28;20029;-89
2022/01/07 06:48:37;;;;;;;28.25;3.95;;;8.50;99.90;;;;;;5032027;28;20518;-88
2022/01/07 06:51:03;;;;;;;29.05;3.75;;;8.50;99.90;;;;;;5024744;28;20050;-89
2022/01/07 06:53:30;;;;;;;41.55;4.70;;;8.50;99.90;;;;;;5013452;28;20356;-88
2022/01/07 06:55:59;;;;;;;31.23;3.42;;;8.40;99.90;;;;;;5012803;28;20030;-88
2022/01/07 06:58:26;;;;;;;33.38;4.78;;;8.40;99.90;;;;;;4991833;28;20027;-88
2022/01/07 07:00:52;;;;;;;36.88;3.75;;;8.50;99.90;;;;;;5014015;28;20288;-89
2022/01/07 07:03:17;;;;;;;25.73;3.72;;;8.50;99.90;;;;;;4998766;28;20038;-89
2022/01/07 07:05:43;;;;;;;33.72;3.72;;;8.40;99.90;;;;;;5012584;28;20192;-88
2022/01/07 07:08:09;;;;;;;33.70;4.18;;;8.40;99.90;;;;;;4992591;28;20030;-89
2022/01/07 07:10:34;;;;;;;32.83;3.85;;;8.40;99.90;;;;;;5011421;28;20123;-89
2022/01/07 07:13:00;;;;;;;33.53;3.83;;;8.40;99.90;;;;;;5013985;28;20025;-88
2022/01/07 07:15:26;;;;;;;33.65;3.83;;;8.30;99.90;;;;;;5031361;28;20369;-89
2022/01/07 07:17:52;;;;;;;33.30;4.30;;;8.30;99.90;;;;;;5031442;28;20501;-89
2022/01/07 07:20:18;;;;;;;36.20;3.78;;;8.30;99.90;;;;;;5021044;28;20026;-89
2022/01/07 07:22:44;;;;;;;35.63;4.63;;;8.20;99.90;;;;;;5012566;28;20045;-88
2022/01/07 07:25:11;;;;;;;33.78;4.75;;;8.30;99.90;;;;;;5012147;28;20056;-88
2022/01/07 07:27:37;;;;;;;28.05;3.75;;;8.30;99.90;;;;;;5012096;28;20273;-88
2022/01/07 07:30:07;;;;;;;40.83;5.28;;;8.30;99.90;;;;;;5012192;28;20204;-88
2022/01/07 07:32:34;;;;;;;29.90;4.45;;;8.40;99.90;;;;;;5012404;28;20034;-90
2022/01/07 07:35:02;;;;;;;34.22;4.10;;;8.40;99.90;;;;;;5011841;28;20061;-88
2022/01/07 07:37:28;;;;;;;30.88;3.40;;;8.40;99.90;;;;;;4994548;28;20054;-88
2022/01/07 07:39:54;;;;;;;37.10;4.75;;;8.40;99.90;;;;;;5011531;28;20080;-88
2022/01/07 07:42:20;;;;;;;34.25;4.40;;;8.40;99.90;;;;;;4993941;28;20623;-88
2022/01/07 07:44:46;;;;;;;38.55;4.70;;;8.40;99.90;;;;;;5011764;28;20270;-88
2022/01/07 07:47:12;;;;;;;40.85;4.88;;;8.40;99.90;;;;;;5011908;28;20439;-87
2022/01/07 07:49:38;;;;;;;49.88;5.28;;;8.40;99.90;;;;;;5011926;28;20038;-86
2022/01/07 07:52:04;;;;;;;32.97;4.03;;;8.40;99.90;;;;;;5012149;28;20092;-86
2022/01/07 07:54:30;;;;;;;34.35;4.93;;;8.40;99.90;;;;;;4992261;28;20029;-86
2022/01/07 07:56:58;;;;;;;33.85;4.15;;;8.40;99.90;;;;;;4998855;28;20030;-86
2022/01/07 07:59:24;;;;;;;37.35;3.50;;;8.40;99.90;;;;;;5027418;28;20021;-86
2022/01/07 08:01:50;;;;;;;19.08;3.63;;;8.50;99.90;;;;;;5030083;28;20033;-86
2022/01/07 08:04:18;;;;;;;25.20;3.67;;;8.50;99.90;;;;;;5029420;28;20028;-86
2022/01/07 08:06:47;;;;;;;27.38;3.72;;;8.50;99.90;;;;;;5012888;28;20426;-86
2022/01/07 08:09:13;;;;;;;28.08;3.38;;;8.50;99.90;;;;;;5011080;28;20021;-86
2022/01/07 08:11:49;;;;;;;18.85;2.30;;;8.50;99.90;;;;;;5010952;28;20037;-86
2022/01/07 08:17:05;;;;;;;22.13;2.25;;;8.60;99.90;;;;;;5010873;28;20099;-85
2022/01/07 08:19:31;;;;;;;17.35;3.15;;;8.60;99.90;;;;;;4989469;28;20514;-85
2022/01/07 08:21:57;;;;;;;23.98;3.17;;;8.60;99.90;;;;;;5007980;28;20407;-86
2022/01/07 08:24:23;;;;;;;18.58;2.75;;;8.60;99.90;;;;;;5018156;28;20021;-85
2022/01/07 08:26:49;;;;;;;24.40;4.00;;;8.60;99.90;;;;;;5010571;28;20056;-85
2022/01/07 08:29:16;;;;;;;23.33;3.42;;;8.70;99.90;;;;;;5010673;28;20406;-83
2022/01/07 08:37:00;;;;;;;31.90;4.38;;;8.80;99.90;;;;;;5004454;28;20379;-81
2022/01/07 08:39:26;;;;;;;28.23;3.88;;;8.80;99.90;;;;;;5029193;28;20509;-81
2022/01/07 08:41:52;;;;;;;27.05;3.70;;;8.90;99.90;;;;;;5029302;28;20029;-80
2022/01/07 08:44:20;;;;;;;29.50;3.25;;;9.00;99.90;;;;;;5028622;28;20055;-81
2022/01/07 08:46:46;;;;;;;22.25;4.13;;;9.10;99.90;;;;;;5029269;28;20498;-82
2022/01/07 08:49:11;;;;;;;28.00;4.72;;;9.10;99.90;;;;;;5029197;28;20028;-81
2022/01/07 08:51:37;;;;;;;32.78;4.47;;;9.20;99.90;;;;;;5028212;28;20567;-81
2022/01/07 08:54:04;;;;;;;30.40;5.72;;;9.30;99.90;;;;;;5028674;28;20027;-81
2022/01/07 08:56:29;;;;;;;31.95;4.65;;;9.30;99.90;;;;;;5008602;28;20022;-81
2022/01/07 08:58:57;;;;;;;29.35;3.72;;;9.30;99.90;;;;;;5009662;28;20049;-81
2022/01/07 09:01:25;;;;;;;27.73;3.55;;;9.20;99.90;;;;;;5010067;28;20048;-80
2022/01/07 09:03:50;;;;;;;20.05;2.92;;;9.20;99.90;;;;;;5009550;28;20033;-81
2022/01/07 09:06:17;;;;;;;23.38;4.05;;;9.10;99.90;;;;;;4988298;28;20026;-81
2022/01/07 09:08:44;;;;;;;24.73;2.97;;;9.00;99.90;;;;;;5006829;28;20504;-81
2022/01/07 09:11:11;;;;;;;27.20;3.10;;;9.10;99.90;;;;;;5009300;28;20080;-81
2022/01/07 09:13:37;;;;;;;19.98;3.30;;;9.20;99.90;;;;;;5009049;28;20715;-81
2022/01/07 09:16:03;;;;;;;18.65;2.80;;;9.30;99.90;;;;;;5009499;28;20022;-81
2022/01/07 09:18:31;;;;;;;18.00;2.33;;;9.60;99.90;;;;;;5009898;28;20036;-81
2022/01/07 09:20:58;;;;;;;15.98;2.42;;;9.70;99.90;;;;;;5009498;28;20025;-82
2022/01/07 09:23:24;;;;;;;21.98;2.60;;;9.70;99.90;;;;;;5009418;28;20072;-83
2022/01/07 09:25:49;;;;;;;20.75;2.95;;;9.50;99.90;;;;;;5009748;28;20026;-83
2022/01/07 09:28:15;;;;;;;24.55;4.65;;;9.30;99.90;;;;;;5009667;28;20037;-83
2022/01/07 09:30:41;;;;;;;20.63;3.10;;;9.10;99.90;;;;;;5009603;28;20078;-82
2022/01/07 09:33:06;;;;;;;24.15;4.18;;;9.00;99.90;;;;;;5000829;28;20026;-82
2022/01/07 09:35:32;;;;;;;26.13;2.53;;;8.90;99.90;;;;;;5009331;28;20405;-83
2022/01/07 09:37:58;;;;;;;23.48;2.80;;;8.80;99.90;;;;;;5009584;28;20091;-82
2022/01/07 09:40:24;;;;;;;16.98;2.28;;;8.80;99.90;;;;;;5009386;28;20033;-82
2022/01/07 09:43:04;;;;;;;17.17;3.15;;;8.70;99.90;;;;;;5010866;28;20025;-87
2022/01/07 09:45:32;;;;;;;16.48;2.42;;;8.60;99.90;;;;;;5009942;28;20482;-94
2022/01/07 09:47:58;;;;;;;18.77;2.38;;;8.50;99.90;;;;;;4990178;28;20018;-87
2022/01/07 09:50:26;;;;;;;12.52;1.90;;;8.50;99.90;;;;;;5008742;28;20407;-87
2022/01/07 09:52:52;;;;;;;19.05;2.67;;;8.50;99.90;;;;;;5008605;28;20037;-86
2022/01/07 09:55:18;;;;;;;19.63;2.55;;;8.50;99.90;;;;;;5009618;28;20026;-87
2022/01/07 09:57:44;;;;;;;18.95;2.50;;;8.60;99.90;;;;;;4991976;28;20405;-87
2022/01/07 10:00:10;;;;;;;18.58;2.97;;;8.60;99.90;;;;;;4992000;28;20029;-87
2022/01/07 10:02:36;;;;;;;23.00;6.28;;;8.70;99.90;;;;;;5008323;28;20427;-87
2022/01/07 10:05:18;;;;;;;12.07;2.00;;;8.70;99.90;;;;;;4992352;28;20026;-87
2022/01/07 10:07:44;;;;;;;13.40;2.42;;;8.80;99.90;;;;;;4995515;28;20123;-88
2022/01/07 10:10:19;;;;;;;16.90;3.13;;;8.80;99.90;;;;;;4994119;28;20043;-87
2022/01/07 10:13:02;;;;;;;10.07;1.88;;;8.90;99.90;;;;;;5012699;28;20339;-88
2022/01/07 10:15:33;;;;;;;15.10;2.50;;;9.00;99.90;;;;;;5013322;28;20517;-87
2022/01/07 10:18:10;;;;;;;17.85;2.00;;;9.00;99.90;;;;;;5013055;28;20026;-88
2022/01/07 10:20:37;;;;;;;16.52;2.67;;;9.10;99.90;;;;;;5031817;28;20171;-88
2022/01/07 10:23:12;;;;;;;16.05;2.20;;;9.20;99.90;;;;;;5031495;28;20060;-88
2022/01/07 10:25:40;;;;;;;19.23;3.60;;;9.20;99.90;;;;;;4992124;28;20071;-87
2022/01/07 10:28:18;;;;;;;20.92;3.67;;;9.30;99.90;;;;;;5031279;28;20022;-82
2022/01/07 10:30:52;;;;;;;17.40;2.33;;;9.40;99.90;;;;;;5031689;28;20136;-82
2022/01/07 10:33:23;;;;;;;17.42;2.70;;;9.50;99.90;;;;;;5031491;28;20038;-82
2022/01/07 10:35:55;;;;;;;20.02;2.88;;;9.60;99.90;;;;;;5031393;28;20029;-82
2022/01/07 10:38:29;;;;;;;16.65;2.20;;;9.60;99.90;;;;;;5031540;28;20040;-81
2022/01/07 10:40:56;;;;;;;;;;;9.70;99.90;;;;;;5032001;28;20075;-82
2022/01/07 10:43:29;;;;;;;15.38;2.35;;;9.70;99.90;;;;;;5030682;28;19908;-81
2022/01/07 10:46:10;;;;;;;15.18;2.88;;;9.80;99.90;;;;;;5031398;28;20032;-82
2022/01/07 10:48:39;;;;;;;14.02;3.05;;;9.90;99.90;;;;;;5013748;28;20200;-81
2022/01/07 10:51:07;;;;;;;17.50;3.63;;;9.90;99.90;;;;;;5030770;28;20103;-81
2022/01/07 10:53:33;;;;;;;16.15;2.33;;;10.10;99.90;;;;;;5031126;28;20033;-81
2022/01/07 10:56:12;;;;;;;13.32;2.47;;;10.10;99.90;;;;;;5031742;28;20095;-81
2022/01/07 10:58:47;;;;;;;16.30;2.05;;;10.10;99.90;;;;;;5012259;28;20036;-81
2022/01/07 11:01:19;;;;;;;16.38;1.75;;;10.20;99.90;;;;;;5012260;28;20534;-81
2022/01/07 11:03:55;;;;;;;15.43;2.30;;;10.20;99.90;;;;;;5011481;28;20106;-81
2022/01/07 11:06:22;;;;;;;21.08;2.97;;;10.20;99.90;;;;;;5011695;28;20030;-81
2022/01/07 11:08:53;;;;;;;13.68;2.20;;;10.20;99.90;;;;;;5012016;28;20033;-82
2022/01/07 11:11:24;;;;;;;16.08;2.58;;;10.20;99.90;;;;;;5011561;28;20064;-81
2022/01/07 11:13:50;;;;;;;18.45;2.40;;;10.30;99.90;;;;;;5011536;28;20022;-80
2022/01/07 11:16:17;;;;;;;16.90;2.60;;;10.30;99.90;;;;;;5011391;28;20117;-81
2022/01/07 11:18:44;;;;;;;16.77;2.90;;;10.30;99.90;;;;;;5019564;28;20100;-80
2022/01/07 11:21:11;;;;;;;19.13;3.08;;;10.30;99.90;;;;;;5030798;28;20068;-80
2022/01/07 11:23:38;;;;;;;17.38;3.45;;;10.30;99.90;;;;;;5030673;28;20105;-80
2022/01/07 11:26:06;;;;;;;19.52;3.42;;;10.40;99.90;;;;;;5031147;28;20022;-80
2022/01/07 11:28:33;;;;;;;18.70;3.13;;;10.40;99.90;;;;;;5013550;28;20080;-80
2022/01/07 11:31:04;;;;;;;12.40;3.00;;;10.40;99.90;;;;;;5012980;28;20028;-80
2022/01/07 11:33:30;;;;;;;15.98;2.55;;;10.40;99.90;;;;;;5012618;28;20065;-80
2022/01/07 11:35:56;;;;;;;16.90;2.70;;;10.50;99.90;;;;;;5028190;28;20032;-80
2022/01/07 11:38:36;;;;;;;18.10;2.33;;;10.50;99.90;;;;;;5030439;28;20040;-80
2022/01/07 11:41:03;;;;;;;15.48;3.25;;;10.60;99.90;;;;;;5029502;28;20032;-80
2022/01/07 11:43:35;;;;;;;18.60;2.65;;;10.70;99.90;;;;;;5029865;28;20056;-79
2022/01/07 11:46:21;;;;;;;17.55;3.05;;;10.70;99.90;;;;;;5030796;28;20112;-79
2022/01/07 11:48:47;;;;;;;23.17;3.13;;;10.80;99.90;;;;;;5024132;28;20034;-79
2022/01/07 11:51:15;;;;;;;20.02;2.70;;;10.80;99.90;;;;;;5029676;28;20144;-79
2022/01/07 11:53:41;;;;;;;22.90;3.45;;;10.80;99.90;;;;;;5029741;28;20504;-81
2022/01/07 11:56:24;;;;;;;23.75;3.10;;;10.90;99.90;;;;;;5030351;28;20022;-80
2022/01/07 11:58:52;;;;;;;27.02;3.13;;;10.90;99.90;;;;;;5012311;28;20025;-80
2022/01/07 12:01:31;;;;;;;27.10;3.22;;;10.90;99.90;;;;;;5030696;28;20421;-85
2022/01/07 12:03:59;;;;;;;24.90;3.47;;;11.00;99.90;;;;;;5034830;28;20025;-84
2022/01/07 12:06:29;;;;;;;21.02;3.22;;;11.00;99.90;;;;;;5032807;28;20108;-84
2022/01/07 12:09:05;;;;;;;26.23;3.90;;;11.00;99.90;;;;;;5030072;28;20026;-84
2022/01/07 12:11:38;;;;;;;32.53;3.88;;;11.00;99.90;;;;;;5031451;28;20032;-84
2022/01/07 12:14:12;;;;;;;30.02;4.18;;;11.00;99.90;;;;;;5017160;28;20501;-84
2022/01/07 12:16:39;;;;;;;26.88;3.70;;;11.00;99.90;;;;;;5007497;28;20395;-84
2022/01/07 12:19:18;;;;;;;30.35;4.40;;;11.00;99.90;;;;;;5010882;28;20441;-84
2022/01/07 12:21:45;;;;;;;34.88;3.88;;;11.10;99.90;;;;;;4992200;28;20145;-84
2022/01/07 12:24:17;;;;;;;30.50;5.15;;;11.10;99.90;;;;;;5010267;28;20064;-84
2022/01/07 12:26:43;;;;;;;31.95;5.63;;;11.10;99.90;;;;;;5009638;28;20502;-84
2022/01/07 12:29:20;;;;;;;27.95;5.20;;;11.10;99.90;;;;;;5011735;28;20109;-81
2022/01/07 12:31:53;;;;;;;31.98;4.10;;;11.10;99.90;;;;;;5010546;28;20084;-81
2022/01/07 12:34:31;;;;;;;27.05;4.45;;;11.10;99.90;;;;;;5009479;28;20026;-81
2022/01/07 12:37:02;;;;;;;26.33;4.63;;;11.10;99.90;;;;;;5010459;28;20033;-81
2022/01/07 12:39:31;;;;;;;24.45;4.45;;;11.20;99.90;;;;;;5010956;28;20494;-81
2022/01/07 12:41:57;;;;;;;27.02;4.82;;;11.20;99.90;;;;;;5010424;28;20042;-81
2022/01/07 12:44:25;;;;;;;33.00;5.20;;;11.20;99.90;;;;;;5009988;28;20026;-81
2022/01/07 12:46:56;;;;;;;36.38;5.82;;;11.30;99.90;;;;;;5010501;28;20048;-81
2022/01/07 12:49:34;;;;;;;38.78;5.57;;;11.30;99.90;;;;;;5112628;27;20367;-82
2022/01/07 12:52:05;;;;;;;27.90;4.53;;;11.40;99.90;;;;;;5088633;28;20438;-82
2022/01/07 12:54:30;;;;;;;35.15;4.40;;;11.40;99.90;;;;;;5106579;28;20035;-81